Time;durP1;ratioP1;P1;durP2;ratioP2;P2;SDS_P1;SDS_P2;PMS_P1;PMS_P2;Temp;Humidity;BMP_temperature;BMP_pressure;BME280_temperature;BME280_humidity;BME280_pressure;Samples;Min_cycle;Max_cycle;Signal;HPM_P1;HPM_P2
2021/03/17 00:00:47;;;;;;;49.80;28.40;;;;;;;-0.87;76.83;100307.00;99428;1167;82938;-64
2021/03/17 00:02:56;;;;;;;51.30;29.85;;;;;;;-0.88;76.88;100300.00;99462;1174;66958;-63
2021/03/17 00:05:01;;;;;;;50.30;28.75;;;;;;;-0.91;77.46;100308.22;99435;1175;87750;-63
2021/03/17 00:07:11;;;;;;;55.40;30.40;;;;;;;-0.92;77.46;100308.31;99437;1168;74898;-63
2021/03/17 00:09:16;;;;;;;47.60;28.20;;;;;;;-0.97;77.55;100311.34;99442;1171;88720;-63
2021/03/17 00:11:22;;;;;;;51.55;28.05;;;;;;;-0.98;77.14;100309.63;99429;1168;82647;-65
2021/03/17 00:13:29;;;;;;;43.95;26.55;;;;;;;-0.98;77.10;100306.98;99442;1174;66982;-65
2021/03/17 00:15:37;;;;;;;47.80;26.50;;;;;;;-0.98;77.04;100309.63;99432;1174;87552;-65
2021/03/17 00:17:42;;;;;;;49.00;27.00;;;;;;;-1.00;77.51;100310.72;99443;1171;75735;-65
2021/03/17 00:19:48;;;;;;;53.30;29.70;;;;;;;-0.99;77.66;100307.94;99448;1171;88643;-63
2021/03/17 00:21:53;;;;;;;48.30;27.25;;;;;;;-1.02;77.37;100308.20;99432;1175;83203;-63
2021/03/17 00:23:58;;;;;;;50.60;27.90;;;;;;;-1.03;77.27;100309.15;99444;1175;67012;-63
2021/03/17 00:26:03;;;;;;;45.07;26.87;;;;;;;-1.04;77.82;100310.09;99439;1175;87776;-65
2021/03/17 00:28:10;;;;;;;51.10;27.50;;;;;;;-1.06;77.74;100305.88;99443;1171;75694;-65
2021/03/17 00:30:17;;;;;;;47.70;26.10;;;;;;;-1.06;77.48;100308.53;99433;1171;89004;-66
2021/03/17 00:32:22;;;;;;;49.20;27.33;;;;;;;-1.13;77.47;100302.88;99428;1175;82391;-65
2021/03/17 00:34:28;;;;;;;48.20;26.60;;;;;;;-1.13;77.48;100302.88;99455;1168;66902;-65
2021/03/17 00:36:33;;;;;;;43.95;25.70;;;;;;;-1.17;77.56;100304.06;99434;1173;87059;-65
2021/03/17 00:38:38;;;;;;;43.40;25.00;;;;;;;-1.16;77.33;100304.91;99450;1174;75742;-65
2021/03/17 00:40:47;;;;;;;41.27;23.37;;;;;;;-1.18;78.05;100302.36;99445;1171;89592;-64
2021/03/17 00:42:52;;;;;;;42.10;23.90;;;;;;;-1.17;78.08;100300.56;99425;1174;82826;-65
2021/03/17 00:44:57;;;;;;;42.25;24.45;;;;;;;-1.15;77.94;100302.13;99458;1168;66896;-65
2021/03/17 00:47:02;;;;;;;41.00;23.60;;;;;;;-1.18;77.76;100301.54;99436;1175;87503;-65
2021/03/17 00:49:07;;;;;;;42.53;22.87;;;;;;;-1.22;78.19;100300.92;99435;1168;74833;-64
2021/03/17 00:51:16;;;;;;;44.10;22.90;;;;;;;-1.21;78.02;100306.09;99433;1174;89581;-64
2021/03/17 00:53:24;;;;;;;37.20;22.10;;;;;;;-1.24;77.98;100308.16;99431;1174;83262;-66
2021/03/17 00:55:29;;;;;;;40.45;24.60;;;;;;;-1.24;78.01;100308.16;99452;1175;66952;-65
2021/03/17 00:57:34;;;;;;;39.57;22.87;;;;;;;-1.26;77.70;100308.25;99437;1171;86359;-66
2021/03/17 00:59:39;;;;;;;40.13;23.57;;;;;;;-1.28;78.21;100304.03;99442;1167;74842;-67
2021/03/17 01:01:44;;;;;;;41.80;23.95;;;;;;;-1.28;77.83;100317.28;99445;1171;89910;-67
2021/03/17 01:03:52;;;;;;;39.80;22.00;;;;;;;-1.30;77.70;100311.27;99425;1175;82965;-65
2021/03/17 01:05:58;;;;;;;35.80;22.15;;;;;;;-1.32;77.74;100315.84;99450;1175;67080;-68
2021/03/17 01:08:04;;;;;;;35.60;21.40;;;;;;;-1.33;78.16;100306.19;99441;1173;87068;-70
2021/03/17 01:10:16;;;;;;;40.40;21.80;;;;;;;-1.36;77.76;100309.07;99441;1175;75804;-68
2021/03/17 01:12:21;;;;;;;36.13;21.40;;;;;;;-1.37;78.15;100304.72;99437;1175;89530;-68
2021/03/17 01:14:29;;;;;;;37.70;21.90;;;;;;;-1.41;78.30;100305.93;99427;1175;81548;-68
2021/03/17 01:16:35;;;;;;;33.40;20.85;;;;;;;-1.43;78.32;100295.43;99457;1174;66858;-67
2021/03/17 01:18:43;;;;;;;37.90;21.70;;;;;;;-1.46;78.66;100305.44;99434;1174;87087;-64
2021/03/17 01:20:48;;;;;;;37.00;20.70;;;;;;;-1.47;77.87;100299.29;99452;1168;74364;-64
2021/03/17 01:22:57;;;;;;;33.47;19.43;;;;;;;-1.47;77.66;100304.59;99428;1175;89643;-65
2021/03/17 01:25:04;;;;;;;34.80;21.35;;;;;;;-1.46;77.96;100308.09;99439;1174;82472;-63
2021/03/17 01:27:12;;;;;;;35.30;20.45;;;;;;;-1.48;77.96;100305.53;99452;1174;66982;-63
2021/03/17 01:29:17;;;;;;;35.00;20.40;;;;;;;-1.51;77.96;100302.30;99439;1175;87713;-63
2021/03/17 01:31:22;;;;;;;34.70;20.60;;;;;;;-1.54;78.28;100305.98;99449;1174;75820;-66
2021/03/17 01:33:32;;;;;;;32.90;19.70;;;;;;;-1.56;78.13;100307.06;99436;1167;89064;-65
2021/03/17 01:35:41;;;;;;;33.10;19.10;;;;;;;-1.58;78.62;100303.70;99430;1174;82642;-65
2021/03/17 01:37:46;;;;;;;37.90;20.50;;;;;;;-1.57;78.15;100306.25;99442;1168;67289;-65
2021/03/17 01:39:55;;;;;;;32.00;20.10;;;;;;;-1.57;78.72;100305.40;99433;1174;87267;-64
2021/03/17 01:42:00;;;;;;;31.05;19.05;;;;;;;-1.58;78.20;100303.70;99464;1168;75204;-65
2021/03/17 01:44:06;;;;;;;37.60;20.10;;;;;;;-1.60;78.08;100311.77;99439;1175;89151;-65
2021/03/17 01:46:11;;;;;;;32.50;20.15;;;;;;;-1.60;78.22;100306.47;99415;1175;82763;-65
2021/03/17 01:48:23;;;;;;;35.30;21.00;;;;;;;-1.61;78.38;100309.22;99452;1175;66960;-64
2021/03/17 01:50:33;;;;;;;36.53;19.93;;;;;;;-1.63;78.56;100306.70;99432;1174;86586;-64
2021/03/17 01:52:41;;;;;;;33.45;19.60;;;;;;;-1.66;78.25;100314.02;99450;1171;74556;-64
2021/03/17 01:54:47;;;;;;;30.45;19.55;;;;;;;-1.67;78.21;100312.31;99439;1174;88618;-65
2021/03/17 01:56:52;;;;;;;32.20;18.90;;;;;;;-1.68;78.78;100308.00;99415;1174;82891;-67
2021/03/17 01:58:58;;;;;;;33.80;19.10;;;;;;;-1.68;78.37;100310.64;99444;1171;66994;-64
2021/03/17 02:01:04;;;;;;;33.90;19.50;;;;;;;-1.72;78.01;100304.72;99430;1175;88054;-64
2021/03/17 02:03:11;;;;;;;32.70;18.00;;;;;;;-1.75;78.20;100310.24;99447;1168;75084;-65
2021/03/17 02:05:21;;;;;;;33.60;17.90;;;;;;;-1.75;78.62;100306.75;99443;1171;89274;-65
2021/03/17 02:07:27;;;;;;;30.20;18.00;;;;;;;-1.79;78.65;100309.62;99427;1175;82969;-65
2021/03/17 02:09:32;;;;;;;30.80;19.10;;;;;;;-1.76;79.07;100305.08;99441;1167;67034;-63
2021/03/17 02:11:42;;;;;;;31.43;18.10;;;;;;;-1.79;78.75;100314.09;99428;1174;88027;-63
2021/03/17 02:14:23;;;;;;;27.35;17.65;;;;;;;-1.80;78.69;100310.59;99439;1174;75457;-63
2021/03/17 02:16:33;;;;;;;27.70;15.15;;;;;;;-1.86;78.70;100313.69;99439;1174;89450;-63
2021/03/17 02:18:51;;;;;;;31.40;16.90;;;;;;;-1.85;78.21;100309.24;99433;1167;82353;-63
2021/03/17 02:21:42;;;;;;;31.40;17.90;;;;;;;-1.85;78.31;100310.09;99451;1174;67046;-63
2021/03/17 02:24:00;;;;;;;27.65;16.00;;;;;;;-1.86;78.89;100315.48;99431;1171;87590;-63
2021/03/17 02:26:53;;;;;;;28.50;16.40;;;;;;;-1.87;78.47;100308.52;99438;1174;74496;-63
2021/03/17 02:29:46;;;;;;;27.45;14.65;;;;;;;-1.88;78.82;100310.32;99434;1174;89141;-65
2021/03/17 02:32:07;;;;;;;27.10;15.20;;;;;;;-1.88;78.97;100307.67;99388;1175;82153;-65
2021/03/17 02:34:16;;;;;;;27.40;14.10;;;;;;;-1.88;79.24;100312.11;99463;1168;66967;-66
2021/03/17 02:36:28;;;;;;;26.80;15.00;;;;;;;-1.89;78.82;100311.27;99433;1167;87000;-66
2021/03/17 02:38:38;;;;;;;26.00;14.80;;;;;;;-1.91;78.61;100313.19;99445;1174;74544;-65
2021/03/17 02:40:44;;;;;;;26.80;14.70;;;;;;;-1.93;78.70;100311.61;99438;1174;90703;-66
2021/03/17 02:42:57;;;;;;;28.10;15.90;;;;;;;-1.96;78.97;100317.13;99432;1173;82251;-67
2021/03/17 02:45:11;;;;;;;24.43;13.80;;;;;;;-1.99;78.60;100312.91;99443;1173;67013;-66
2021/03/17 02:47:18;;;;;;;24.40;14.60;;;;;;;-2.00;79.01;100313.85;99449;1167;87004;-66
2021/03/17 02:49:34;;;;;;;25.10;14.70;;;;;;;-2.02;78.96;100317.56;99451;1174;75834;-66
2021/03/17 02:51:44;;;;;;;25.40;14.00;;;;;;;-2.03;78.40;100319.36;99449;1168;88336;-65
2021/03/17 02:53:51;;;;;;;23.60;14.40;;;;;;;-2.06;78.52;100314.29;99423;1174;82350;-67
2021/03/17 02:56:01;;;;;;;27.80;15.95;;;;;;;-2.07;78.78;100317.91;99445;1174;67062;-67
2021/03/17 02:58:08;;;;;;;27.25;15.25;;;;;;;-2.08;78.69;100315.36;99434;1171;87600;-65
2021/03/17 03:00:16;;;;;;;25.40;14.30;;;;;;;-2.11;79.08;100321.73;99453;1171;74666;-64
2021/03/17 03:02:22;;;;;;;26.45;14.90;;;;;;;-2.13;78.82;100318.35;99446;1167;88587;-64
2021/03/17 03:04:32;;;;;;;24.30;14.60;;;;;;;-2.13;78.67;100318.35;99418;1171;82572;-65
2021/03/17 03:06:38;;;;;;;25.90;13.95;;;;;;;-2.12;78.89;100320.05;99444;1168;66963;-65
2021/03/17 03:08:46;;;;;;;23.60;14.95;;;;;;;-2.14;79.50;100321.13;99440;1174;87009;-64
2021/03/17 03:10:52;;;;;;;28.13;14.87;;;;;;;-2.12;78.98;100325.34;99446;1175;74839;-65
2021/03/17 03:13:01;;;;;;;24.30;14.90;;;;;;;-2.08;79.39;100321.50;99437;1171;88999;-66
2021/03/17 03:15:10;;;;;;;25.50;15.40;;;;;;;-2.08;79.61;100326.80;99419;1168;82739;-65
2021/03/17 03:17:16;;;;;;;28.25;14.00;;;;;;;-2.08;79.32;100332.09;99441;1175;67209;-65
2021/03/17 03:19:25;;;;;;;26.20;14.30;;;;;;;-2.01;79.83;100333.35;99422;1167;87400;-64
2021/03/17 03:21:33;;;;;;;22.70;13.10;;;;;;;-1.92;79.74;100331.81;99449;1175;75139;-66
2021/03/17 03:23:39;;;;;;;20.20;13.55;;;;;;;-1.84;80.33;100334.77;99443;1172;89146;-66
2021/03/17 03:25:46;;;;;;;24.60;14.20;;;;;;;-1.69;79.95;100324.83;99426;1171;81647;-66
2021/03/17 03:27:53;;;;;;;24.17;15.67;;;;;;;-1.54;80.69;100332.47;99448;1171;67074;-65
2021/03/17 03:30:01;;;;;;;25.10;14.10;;;;;;;-1.39;80.79;100341.09;99441;1173;86345;-63
2021/03/17 03:32:08;;;;;;;27.90;15.15;;;;;;;-1.26;80.71;100341.84;99448;1173;74443;-63
2021/03/17 03:34:15;;;;;;;21.20;13.70;;;;;;;-1.17;81.85;100346.46;99447;1175;89929;-63
2021/03/17 03:36:21;;;;;;;22.55;13.95;;;;;;;-1.08;81.91;100345.77;99422;1175;82011;-65
2021/03/17 03:38:26;;;;;;;24.40;14.80;;;;;;;-0.95;81.69;100343.02;99448;1175;66842;-65
2021/03/17 03:40:31;;;;;;;23.35;14.40;;;;;;;-0.86;81.76;100351.13;99438;1175;87679;-62
2021/03/17 03:42:36;;;;;;;20.80;12.40;;;;;;;-0.82;82.14;100347.25;99449;1175;75779;-63
2021/03/17 03:44:42;;;;;;;27.60;15.50;;;;;;;-0.75;81.91;100352.94;99445;1175;89950;-63
2021/03/17 03:46:47;;;;;;;24.75;15.55;;;;;;;-0.66;82.05;100361.02;99422;1175;82730;-63
2021/03/17 03:48:52;;;;;;;24.80;14.70;;;;;;;-0.57;81.79;100367.41;99445;1173;66826;-63
2021/03/17 03:50:59;;;;;;;23.50;14.60;;;;;;;-0.53;82.00;100362.72;99437;1168;87167;-62
2021/03/17 03:53:20;;;;;;;22.80;13.50;;;;;;;-0.51;82.53;100355.48;99450;1168;75019;-65
2021/03/17 03:55:30;;;;;;;24.65;14.75;;;;;;;-0.47;81.87;100357.80;99440;1168;88532;-65
2021/03/17 03:57:45;;;;;;;24.00;14.70;;;;;;;-0.45;82.36;100362.97;99437;1175;83025;-65
2021/03/17 03:59:56;;;;;;;19.10;12.20;;;;;;;-0.43;82.63;100356.57;99443;1175;67044;-65
2021/03/17 04:02:05;;;;;;;24.50;13.60;;;;;;;-0.38;82.71;100357.05;99428;1175;87999;-66
2021/03/17 04:04:14;;;;;;;21.05;13.25;;;;;;;-0.30;81.96;100359.94;99445;1175;76009;-66
2021/03/17 04:06:20;;;;;;;21.60;14.15;;;;;;;-0.23;82.36;100373.58;99435;1175;89903;-65
2021/03/17 04:08:29;;;;;;;21.65;13.50;;;;;;;-0.21;82.16;100368.98;99432;1175;82317;-65
2021/03/17 04:10:36;;;;;;;21.50;13.90;;;;;;;-0.19;82.38;100372.35;99440;1175;66818;-66
2021/03/17 04:12:44;;;;;;;18.50;12.30;;;;;;;-0.19;82.41;100370.55;99445;1171;86592;-66
2021/03/17 04:14:53;;;;;;;21.05;11.85;;;;;;;-0.14;82.65;100370.20;99457;1173;74607;-66
2021/03/17 04:17:07;;;;;;;20.40;13.40;;;;;;;-0.15;82.20;100376.47;99429;1168;89168;-66
2021/03/17 04:19:14;;;;;;;18.60;11.80;;;;;;;-0.06;82.59;100375.75;99434;1174;83343;-65
2021/03/17 04:21:23;;;;;;;16.80;10.90;;;;;;;-0.06;82.74;100373.94;99447;1174;66894;-66
2021/03/17 04:23:29;;;;;;;17.50;11.07;;;;;;;0.01;82.22;100379.59;99438;1174;87187;-65
2021/03/17 04:25:38;;;;;;;14.10;8.85;;;;;;;-0.01;82.39;100376.22;99450;1175;74913;-65
2021/03/17 04:27:47;;;;;;;14.05;9.85;;;;;;;0.00;82.24;100378.73;99445;1175;89151;-65
2021/03/17 04:29:54;;;;;;;13.57;9.90;;;;;;;0.00;82.27;100383.23;99419;1171;81493;-65
2021/03/17 04:32:01;;;;;;;12.90;8.90;;;;;;;0.02;82.67;100375.13;99442;1175;66915;-63
2021/03/17 04:34:08;;;;;;;13.00;8.60;;;;;;;0.07;82.52;100383.56;99441;1172;87145;-63
2021/03/17 04:36:15;;;;;;;12.60;8.50;;;;;;;0.11;82.08;100385.84;99456;1173;75269;-65
2021/03/17 04:38:22;;;;;;;13.80;8.80;;;;;;;0.11;82.46;100385.84;99450;1172;89097;-65
2021/03/17 04:40:28;;;;;;;14.10;9.60;;;;;;;0.16;82.01;100388.99;99408;1172;81652;-65
2021/03/17 04:42:35;;;;;;;12.70;8.90;;;;;;;0.20;82.05;100385.11;99440;1171;67268;-65
2021/03/17 04:44:43;;;;;;;11.35;7.35;;;;;;;0.27;81.82;100386.31;99437;1171;87015;-64
2021/03/17 04:46:49;;;;;;;10.75;6.95;;;;;;;0.28;82.18;100393.30;99453;1168;75625;-62
2021/03/17 04:48:55;;;;;;;13.40;7.60;;;;;;;0.26;82.04;100381.96;99439;1171;89822;-62
2021/03/17 04:51:02;;;;;;;14.20;9.40;;;;;;;0.26;82.48;100384.61;99410;1171;82393;-61
2021/03/17 04:53:10;;;;;;;13.30;8.70;;;;;;;0.21;82.86;100389.46;99450;1168;66959;-61
2021/03/17 04:55:16;;;;;;;12.10;8.30;;;;;;;0.21;82.09;100396.58;99439;1175;87589;-61
2021/03/17 04:57:26;;;;;;;11.15;7.75;;;;;;;0.21;82.67;100388.61;99444;1171;74429;-61
2021/03/17 04:59:36;;;;;;;10.55;6.85;;;;;;;0.20;82.75;100393.07;99439;1175;89694;-61
2021/03/17 05:01:44;;;;;;;11.55;8.35;;;;;;;0.17;82.80;100395.97;99422;1168;82387;-64
2021/03/17 05:03:50;;;;;;;11.90;8.63;;;;;;;0.21;82.46;100392.12;99443;1174;67187;-64
2021/03/17 05:05:57;;;;;;;14.70;9.30;;;;;;;0.22;82.48;100388.47;99427;1174;86896;-60
2021/03/17 05:08:08;;;;;;;10.90;8.10;;;;;;;0.27;82.87;100390.78;99447;1175;75954;-62
2021/03/17 05:10:15;;;;;;;11.70;8.70;;;;;;;0.30;82.32;100399.32;99430;1168;89108;-65
2021/03/17 05:12:22;;;;;;;11.50;7.35;;;;;;;0.30;82.31;100406.47;99428;1175;82898;-65
2021/03/17 05:14:28;;;;;;;10.90;7.20;;;;;;;0.30;82.28;100401.98;99436;1174;66996;-65
2021/03/17 05:16:35;;;;;;;10.85;7.80;;;;;;;0.34;82.47;100400.77;99440;1175;88035;-62
2021/03/17 05:18:45;;;;;;;12.35;8.45;;;;;;;0.37;82.23;100405.84;99442;1175;75755;-62
2021/03/17 05:20:53;;;;;;;11.95;8.55;;;;;;;0.41;82.58;100409.92;99431;1175;90186;-62
2021/03/17 05:22:59;;;;;;;12.15;8.55;;;;;;;0.39;82.46;100405.70;99423;1175;82791;-62
2021/03/17 05:25:07;;;;;;;10.70;7.50;;;;;;;0.39;82.40;100406.55;99440;1175;66963;-62
2021/03/17 05:27:18;;;;;;;14.70;9.30;;;;;;;0.40;82.40;100413.57;99421;1175;87783;-62
2021/03/17 05:29:28;;;;;;;15.40;7.80;;;;;;;0.42;82.52;100414.28;99447;1168;74625;-62
2021/03/17 05:31:35;;;;;;;12.90;7.75;;;;;;;0.47;82.33;100420.06;99444;1168;88976;-66
2021/03/17 05:33:40;;;;;;;9.87;7.07;;;;;;;0.51;82.52;100413.55;99428;1168;82132;-64
2021/03/17 05:35:46;;;;;;;11.00;7.70;;;;;;;0.52;82.01;100420.53;99446;1175;67141;-61
2021/03/17 05:37:51;;;;;;;12.30;8.20;;;;;;;0.51;82.28;100418.01;99440;1172;86700;-61
2021/03/17 05:39:57;;;;;;;12.50;7.85;;;;;;;0.52;82.43;100423.19;99447;1174;75454;-64
2021/03/17 05:42:02;;;;;;;11.90;8.50;;;;;;;0.51;82.22;100421.52;99443;1174;88886;-64
2021/03/17 05:44:09;;;;;;;12.35;8.35;;;;;;;0.57;81.95;100426.34;99414;1167;81711;-65
2021/03/17 05:46:18;;;;;;;12.60;8.30;;;;;;;0.51;82.50;100425.98;99439;1175;66869;-62
2021/03/17 05:48:26;;;;;;;10.90;7.60;;;;;;;0.53;81.90;100419.56;99437;1171;86864;-62
2021/03/17 05:50:31;;;;;;;13.80;8.30;;;;;;;0.51;82.21;100410.03;99450;1175;75992;-65
2021/03/17 05:52:37;;;;;;;15.10;9.35;;;;;;;0.56;82.17;100419.32;99445;1175;89402;-65
2021/03/17 05:54:43;;;;;;;13.37;8.03;;;;;;;0.55;82.52;100416.77;99413;1174;81689;-62
2021/03/17 05:56:48;;;;;;;11.90;8.35;;;;;;;0.56;82.66;100427.30;99447;1168;66931;-62
2021/03/17 05:58:56;;;;;;;12.40;8.20;;;;;;;0.60;82.16;100426.06;99437;1174;87453;-62
2021/03/17 06:01:01;;;;;;;12.30;8.50;;;;;;;0.70;81.87;100427.97;99442;1175;76077;-61
2021/03/17 06:03:07;;;;;;;13.40;8.90;;;;;;;0.74;82.30;100432.08;99434;1175;89323;-62
2021/03/17 06:05:15;;;;;;;14.10;8.20;;;;;;;0.79;82.15;100436.05;99421;1175;82292;-61
2021/03/17 06:07:25;;;;;;;14.35;8.05;;;;;;;0.84;81.85;100433.00;99451;1167;66977;-62
2021/03/17 06:09:35;;;;;;;13.10;8.47;;;;;;;0.85;81.84;100440.02;99422;1168;87497;-61
2021/03/17 06:11:42;;;;;;;12.60;7.73;;;;;;;0.84;81.78;100441.83;99453;1171;75419;-65
2021/03/17 06:13:50;;;;;;;13.20;8.20;;;;;;;0.87;82.30;100430.09;99436;1174;90085;-65
2021/03/17 06:16:03;;;;;;;13.23;8.23;;;;;;;0.86;81.85;100436.38;99429;1167;82222;-62
2021/03/17 06:18:20;;;;;;;14.47;8.60;;;;;;;0.88;82.31;100439.77;99445;1171;67005;-62
2021/03/17 06:20:29;;;;;;;15.90;8.40;;;;;;;0.88;82.62;100440.59;99430;1167;87552;-65
2021/03/17 06:22:36;;;;;;;15.50;9.10;;;;;;;0.97;82.04;100438.98;99454;1174;76197;-65
2021/03/17 06:24:41;;;;;;;15.90;9.50;;;;;;;1.02;81.83;100436.78;99431;1171;88713;-62
2021/03/17 06:26:48;;;;;;;17.10;10.20;;;;;;;1.07;81.94;100442.59;99415;1175;82808;-62
2021/03/17 06:28:55;;;;;;;14.80;8.80;;;;;;;1.08;82.13;100446.92;99439;1171;66839;-62
2021/03/17 06:31:03;;;;;;;14.75;8.80;;;;;;;1.09;82.34;100449.47;99442;1175;87690;-62
2021/03/17 06:33:09;;;;;;;14.70;8.60;;;;;;;1.15;82.02;100448.11;99459;1168;75616;-62
2021/03/17 06:35:24;;;;;;;15.90;9.80;;;;;;;1.17;81.88;100452.33;99452;1175;89576;-62
2021/03/17 06:37:39;;;;;;;16.05;9.85;;;;;;;1.26;81.87;100452.53;99415;1173;82393;-61
2021/03/17 06:39:47;;;;;;;16.20;10.10;;;;;;;1.31;81.64;100458.30;99444;1175;66911;-64
2021/03/17 06:41:54;;;;;;;16.55;9.60;;;;;;;1.39;82.05;100458.50;99439;1171;86345;-64
2021/03/17 06:44:06;;;;;;;15.00;9.65;;;;;;;1.43;81.88;100454.63;99440;1175;74486;-64
2021/03/17 06:46:17;;;;;;;16.70;11.10;;;;;;;1.45;81.51;100453.52;99432;1171;89789;-64
2021/03/17 06:48:27;;;;;;;18.60;12.50;;;;;;;1.52;81.58;100459.99;99426;1175;82941;-64
2021/03/17 06:50:32;;;;;;;22.30;15.90;;;;;;;1.57;81.51;100460.44;99440;1174;66911;-61
2021/03/17 06:52:39;;;;;;;19.00;12.23;;;;;;;1.58;81.50;100458.63;99434;1168;86992;-61
2021/03/17 06:55:09;;;;;;;18.90;12.60;;;;;;;1.59;81.74;100461.14;99437;1174;76017;-63
2021/03/17 06:57:28;;;;;;;18.95;12.60;;;;;;;1.58;81.81;100463.95;99452;1174;89700;-62
2021/03/17 06:59:33;;;;;;;19.00;11.50;;;;;;;1.61;81.75;100464.55;99428;1175;82241;-62
2021/03/17 07:01:40;;;;;;;16.13;10.57;;;;;;;1.60;81.62;100461.99;99445;1175;66910;-62
2021/03/17 07:03:55;;;;;;;23.20;16.75;;;;;;;1.69;81.72;100470.05;99441;1167;86902;-62
2021/03/17 07:06:10;;;;;;;16.60;10.95;;;;;;;1.67;81.71;100471.16;99448;1174;74961;-65
2021/03/17 07:08:32;;;;;;;17.50;12.10;;;;;;;1.66;81.47;100464.98;99433;1172;88980;-65
2021/03/17 07:10:42;;;;;;;19.55;12.60;;;;;;;1.70;81.69;100463.73;99424;1175;81836;-65
2021/03/17 07:12:55;;;;;;;27.60;19.27;;;;;;;1.70;81.75;100469.06;99442;1175;66899;-65
2021/03/17 07:15:11;;;;;;;26.83;15.07;;;;;;;1.82;81.49;100468.98;99432;1171;86859;-62
2021/03/17 07:17:26;;;;;;;21.60;15.00;;;;;;;1.89;81.43;100464.84;99443;1169;76031;-61
2021/03/17 07:19:36;;;;;;;21.10;13.90;;;;;;;1.93;81.45;100474.23;99443;1174;88948;-61
2021/03/17 07:21:42;;;;;;;21.50;14.55;;;;;;;1.93;81.06;100471.57;99431;1168;82733;-61
2021/03/17 07:23:47;;;;;;;22.75;14.20;;;;;;;1.94;81.41;100476.78;99441;1168;66910;-63
2021/03/17 07:26:18;;;;;;;29.00;18.40;;;;;;;1.97;81.12;100476.52;99437;1168;86763;-63
2021/03/17 07:28:24;;;;;;;23.75;15.25;;;;;;;2.02;81.02;100481.44;99455;1171;74548;-63
2021/03/17 07:30:34;;;;;;;116.13;55.43;;;;;;;2.02;81.17;100479.63;99444;1171;88590;-64
2021/03/17 07:33:00;;;;;;;89.20;42.10;;;;;;;2.06;81.05;100475.70;99428;1174;82391;-63
2021/03/17 07:35:27;;;;;;;61.45;30.00;;;;;;;2.08;80.88;100478.25;99439;1174;67068;-63
2021/03/17 07:37:32;;;;;;;45.00;24.10;;;;;;;2.02;81.05;100470.78;99433;1175;88676;-65
2021/03/17 07:39:41;;;;;;;70.45;34.35;;;;;;;1.99;81.09;100471.05;99446;1175;76139;-64
2021/03/17 07:41:52;;;;;;;48.40;23.80;;;;;;;1.99;81.16;100476.38;99441;1171;88951;-63
2021/03/17 07:43:59;;;;;;;47.87;24.60;;;;;;;1.97;80.94;100479.19;99433;1168;82584;-64
2021/03/17 07:46:05;;;;;;;40.20;22.05;;;;;;;2.06;81.11;100477.55;99442;1167;67334;-66
2021/03/17 07:48:14;;;;;;;36.70;20.30;;;;;;;2.12;81.08;100477.84;99438;1173;87021;-64
2021/03/17 07:50:20;;;;;;;26.00;16.45;;;;;;;2.09;81.12;100477.25;99447;1174;75349;-64
2021/03/17 07:52:32;;;;;;;32.63;19.90;;;;;;;2.06;80.97;100478.36;99443;1174;89973;-66
2021/03/17 07:54:39;;;;;;;23.85;15.15;;;;;;;2.12;81.06;100477.84;99422;1168;81774;-66
2021/03/17 07:56:45;;;;;;;22.90;13.35;;;;;;;2.16;81.30;100483.75;99440;1174;67351;-64
2021/03/17 07:58:55;;;;;;;30.10;17.20;;;;;;;2.21;81.13;100486.85;99443;1168;86393;-65
2021/03/17 08:01:00;;;;;;;20.40;11.55;;;;;;;2.20;81.12;100482.49;99452;1175;74745;-65
2021/03/17 08:03:07;;;;;;;15.70;9.80;;;;;;;2.17;81.13;100480.13;99436;1175;89434;-64
2021/03/17 08:05:17;;;;;;;24.30;14.35;;;;;;;2.22;81.35;100472.56;99429;1169;82531;-65
2021/03/17 08:07:22;;;;;;;19.90;12.10;;;;;;;2.31;81.20;100477.06;99438;1175;66862;-65
2021/03/17 08:09:36;;;;;;;17.60;10.25;;;;;;;2.32;80.87;100478.77;99434;1175;86694;-64
2021/03/17 08:11:48;;;;;;;15.45;9.30;;;;;;;2.39;80.79;100472.75;99437;1175;75324;-66
2021/03/17 08:13:58;;;;;;;19.70;11.30;;;;;;;2.49;80.90;100480.80;99447;1175;89881;-65
2021/03/17 08:16:08;;;;;;;21.00;11.40;;;;;;;2.62;81.33;100483.20;99439;1174;82576;-64
2021/03/17 08:18:47;;;;;;;23.00;12.73;;;;;;;2.72;80.92;100471.57;99455;1171;66910;-65
2021/03/17 08:20:54;;;;;;;21.20;11.00;;;;;;;2.85;80.65;100482.00;99426;1171;86757;-64
2021/03/17 08:23:05;;;;;;;11.90;7.20;;;;;;;2.81;80.84;100478.75;99464;1168;75170;-65
2021/03/17 08:25:12;;;;;;;9.87;6.97;;;;;;;2.78;80.26;100487.03;99443;1175;89029;-63
2021/03/17 08:27:30;;;;;;;11.60;7.60;;;;;;;2.80;79.89;100484.23;99433;1175;82962;-64
2021/03/17 08:29:40;;;;;;;11.70;7.80;;;;;;;2.84;80.02;100482.97;99442;1175;66900;-65
2021/03/17 08:31:53;;;;;;;10.50;7.80;;;;;;;2.85;80.01;100482.84;99435;1168;87651;-65
2021/03/17 08:33:59;;;;;;;11.83;7.43;;;;;;;2.86;80.02;100478.33;99454;1175;74455;-65
2021/03/17 08:36:09;;;;;;;10.93;7.23;;;;;;;2.89;80.09;100476.23;99446;1171;89725;-65
2021/03/17 08:38:18;;;;;;;10.67;7.23;;;;;;;2.99;79.85;100478.93;99426;1175;82661;-65
2021/03/17 08:40:48;;;;;;;11.50;7.40;;;;;;;2.93;79.80;100476.81;99434;1171;67140;-65
2021/03/17 08:42:53;;;;;;;10.47;6.83;;;;;;;3.00;79.91;100480.59;99439;1167;88914;-66
2021/03/17 08:45:00;;;;;;;11.80;7.65;;;;;;;3.08;79.51;100475.41;99457;1175;75215;-66
2021/03/17 08:47:31;;;;;;;10.75;7.30;;;;;;;3.18;79.62;100478.09;99443;1168;88927;-63
2021/03/17 08:49:39;;;;;;;12.65;7.50;;;;;;;3.24;79.41;100473.02;99428;1174;82468;-66
2021/03/17 08:52:10;;;;;;;10.95;7.10;;;;;;;3.24;79.36;100480.20;99454;1168;67108;-65
2021/03/17 08:54:45;;;;;;;10.70;7.10;;;;;;;3.25;79.76;100479.20;99435;1175;87703;-65
2021/03/17 08:56:51;;;;;;;9.10;6.70;;;;;;;3.28;79.38;100481.59;99446;1168;74688;-65
2021/03/17 08:59:17;;;;;;;10.40;7.45;;;;;;;3.40;79.15;100477.81;99440;1175;90257;-65
2021/03/17 09:01:33;;;;;;;10.00;7.00;;;;;;;3.45;79.05;100479.07;99416;1173;82320;-66
2021/03/17 09:03:48;;;;;;;9.90;6.80;;;;;;;3.51;78.86;100470.50;99444;1175;66839;-64
2021/03/17 09:06:08;;;;;;;11.00;7.65;;;;;;;3.72;78.99;100478.32;99437;1175;87510;-64
2021/03/17 09:08:17;;;;;;;14.50;8.70;;;;;;;3.90;78.74;100481.92;99448;1175;75521;-64
2021/03/17 09:10:24;;;;;;;9.60;6.80;;;;;;;4.09;78.91;100475.70;99448;1173;88895;-62
2021/03/17 09:12:49;;;;;;;11.13;7.00;;;;;;;4.21;78.42;100479.86;99425;1174;82217;-63
2021/03/17 09:15:17;;;;;;;10.25;6.75;;;;;;;4.19;77.73;100465.80;99450;1172;66886;-66
2021/03/17 09:18:00;;;;;;;12.20;7.45;;;;;;;4.26;78.02;100471.42;99434;1173;86476;-65
2021/03/17 09:20:35;;;;;;;9.50;6.97;;;;;;;4.38;77.90;100470.22;99446;1176;75502;-66
2021/03/17 09:23:06;;;;;;;8.85;6.65;;;;;;;4.44;77.57;100473.16;99412;1168;89451;-70
2021/03/17 09:25:25;;;;;;;8.70;6.20;;;;;;;4.43;77.39;100474.13;99415;1173;81904;-66
2021/03/17 09:27:31;;;;;;;8.40;6.00;;;;;;;4.43;77.43;100473.28;99448;1175;66828;-66
2021/03/17 09:29:37;;;;;;;12.35;6.75;;;;;;;4.52;77.44;100475.92;99435;1175;87591;-62
2021/03/17 09:31:46;;;;;;;9.33;6.50;;;;;;;4.58;77.08;100477.17;99442;1168;75094;-64
2021/03/17 09:33:52;;;;;;;8.00;6.05;;;;;;;4.66;77.30;100474.59;99451;1175;89329;-63
2021/03/17 09:36:02;;;;;;;9.40;7.00;;;;;;;4.73;76.83;100479.18;99423;1175;81457;-62
2021/03/17 09:38:14;;;;;;;8.15;5.50;;;;;;;4.72;76.06;100482.02;99450;1168;66979;-61
2021/03/17 09:40:20;;;;;;;7.70;5.70;;;;;;;4.65;76.27;100487.11;99434;1175;87145;-62
2021/03/17 09:42:26;;;;;;;7.60;5.35;;;;;;;4.57;75.83;100483.50;99447;1168;74490;-66
2021/03/17 09:44:31;;;;;;;7.80;5.30;;;;;;;4.51;75.30;100486.77;99433;1172;88198;-59
2021/03/17 09:46:40;;;;;;;9.90;5.90;;;;;;;4.32;75.38;100487.70;99412;1175;82869;-62
2021/03/17 09:48:54;;;;;;;7.20;5.20;;;;;;;4.34;75.60;100483.03;99450;1174;66961;-63
2021/03/17 09:51:02;;;;;;;6.55;5.30;;;;;;;4.40;75.75;100490.47;99436;1168;86550;-60
2021/03/17 09:53:15;;;;;;;8.55;6.10;;;;;;;4.34;75.65;100484.89;99442;1175;75414;-62
2021/03/17 09:55:32;;;;;;;8.90;6.20;;;;;;;4.33;75.59;100492.06;99438;1168;89585;-62
2021/03/17 09:57:40;;;;;;;7.80;5.90;;;;;;;4.28;75.62;100494.34;99423;1175;82546;-61